sensor_id;sensor_type;location;lat;lon;timestamp;temperature;humidity
20035;DHT22;10178;48.034;9.800;2023-07-16T00:02:04;26.40;99.90
20035;DHT22;10178;48.034;9.800;2023-07-16T00:04:31;26.50;99.90
20035;DHT22;10178;48.034;9.800;2023-07-16T00:06:56;26.60;99.90
20035;DHT22;10178;48.034;9.800;2023-07-16T00:09:22;26.50;99.90
20035;DHT22;10178;48.034;9.800;2023-07-16T00:11:47;25.30;99.90
20035;DHT22;10178;48.034;9.800;2023-07-16T00:14:13;25.80;99.90
20035;DHT22;10178;48.034;9.800;2023-07-16T00:16:39;26.10;99.90
20035;DHT22;10178;48.034;9.800;2023-07-16T00:19:04;25.70;99.90
20035;DHT22;10178;48.034;9.800;2023-07-16T00:21:30;25.60;99.90
20035;DHT22;10178;48.034;9.800;2023-07-16T00:23:56;24.90;99.90
20035;DHT22;10178;48.034;9.800;2023-07-16T00:26:21;24.00;99.90
20035;DHT22;10178;48.034;9.800;2023-07-16T00:28:47;23.60;99.90
20035;DHT22;10178;48.034;9.800;2023-07-16T00:31:13;23.60;99.90
20035;DHT22;10178;48.034;9.800;2023-07-16T00:33:39;22.90;99.90
20035;DHT22;10178;48.034;9.800;2023-07-16T00:36:04;22.40;99.90
20035;DHT22;10178;48.034;9.800;2023-07-16T00:38:30;22.10;99.90
20035;DHT22;10178;48.034;9.800;2023-07-16T00:40:56;22.60;99.90
20035;DHT22;10178;48.034;9.800;2023-07-16T00:43:22;23.10;99.90
20035;DHT22;10178;48.034;9.800;2023-07-16T00:45:48;23.70;99.90
20035;DHT22;10178;48.034;9.800;2023-07-16T00:48:14;24.20;99.90
20035;DHT22;10178;48.034;9.800;2023-07-16T00:50:41;24.70;99.90
20035;DHT22;10178;48.034;9.800;2023-07-16T00:53:10;24.70;99.90
20035;DHT22;10178;48.034;9.800;2023-07-16T00:55:36;25.10;99.90
20035;DHT22;10178;48.034;9.800;2023-07-16T00:58:05;25.50;99.90
20035;DHT22;10178;48.034;9.800;2023-07-16T01:00:38;24.70;99.90
20035;DHT22;10178;48.034;9.800;2023-07-16T01:03:06;24.00;99.90
20035;DHT22;10178;48.034;9.800;2023-07-16T01:05:49;24.50;99.90
20035;DHT22;10178;48.034;9.800;2023-07-16T01:08:27;24.70;99.90
20035;DHT22;10178;48.034;9.800;2023-07-16T01:10:56;24.50;99.90
20035;DHT22;10178;48.034;9.800;2023-07-16T01:13:22;23.90;99.90
20035;DHT22;10178;48.034;9.800;2023-07-16T01:15:48;23.50;99.90
20035;DHT22;10178;48.034;9.800;2023-07-16T01:18:13;24.10;99.90
20035;DHT22;10178;48.034;9.800;2023-07-16T01:20:39;24.80;99.90
20035;DHT22;10178;48.034;9.800;2023-07-16T01:31:29;25.60;99.90
20035;DHT22;10178;48.034;9.800;2023-07-16T01:33:55;25.70;99.90
20035;DHT22;10178;48.034;9.800;2023-07-16T01:36:22;25.90;99.90
20035;DHT22;10178;48.034;9.800;2023-07-16T01:38:49;26.00;99.90
20035;DHT22;10178;48.034;9.800;2023-07-16T01:41:14;26.10;99.90
20035;DHT22;10178;48.034;9.800;2023-07-16T01:43:40;26.20;99.90
20035;DHT22;10178;48.034;9.800;2023-07-16T01:46:06;26.20;99.90
20035;DHT22;10178;48.034;9.800;2023-07-16T01:48:36;26.30;99.90
20035;DHT22;10178;48.034;9.800;2023-07-16T01:51:03;26.20;99.90
20035;DHT22;10178;48.034;9.800;2023-07-16T01:53:29;26.20;99.90
20035;DHT22;10178;48.034;9.800;2023-07-16T01:55:55;26.00;99.90
20035;DHT22;10178;48.034;9.800;2023-07-16T01:58:21;25.90;99.90
20035;DHT22;10178;48.034;9.800;2023-07-16T02:00:49;25.90;99.90
20035;DHT22;10178;48.034;9.800;2023-07-16T02:03:14;25.90;99.90
20035;DHT22;10178;48.034;9.800;2023-07-16T02:05:40;25.90;99.90
20035;DHT22;10178;48.034;9.800;2023-07-16T02:08:06;25.90;99.90
20035;DHT22;10178;48.034;9.800;2023-07-16T02:10:31;25.80;99.90
20035;DHT22;10178;48.034;9.800;2023-07-16T02:12:57;25.80;99.90
20035;DHT22;10178;48.034;9.800;2023-07-16T02:15:23;25.70;99.90
20035;DHT22;10178;48.034;9.800;2023-07-16T02:17:48;25.00;99.90
20035;DHT22;10178;48.034;9.800;2023-07-16T02:20:14;25.20;99.90
20035;DHT22;10178;48.034;9.800;2023-07-16T02:22:40;25.20;99.90
20035;DHT22;10178;48.034;9.800;2023-07-16T02:25:06;25.00;99.90
20035;DHT22;10178;48.034;9.800;2023-07-16T02:27:31;23.10;99.90
20035;DHT22;10178;48.034;9.800;2023-07-16T02:29:57;21.40;99.90
20035;DHT22;10178;48.034;9.800;2023-07-16T02:32:23;20.30;99.90
20035;DHT22;10178;48.034;9.800;2023-07-16T02:34:49;20.00;99.90
20035;DHT22;10178;48.034;9.800;2023-07-16T02:37:14;21.10;99.90
20035;DHT22;10178;48.034;9.800;2023-07-16T02:39:41;22.40;99.90
20035;DHT22;10178;48.034;9.800;2023-07-16T02:42:07;23.40;99.90
20035;DHT22;10178;48.034;9.800;2023-07-16T02:44:34;24.00;99.90
20035;DHT22;10178;48.034;9.800;2023-07-16T02:47:03;23.50;99.90
20035;DHT22;10178;48.034;9.800;2023-07-16T02:49:29;22.80;99.90
20035;DHT22;10178;48.034;9.800;2023-07-16T02:51:55;23.30;99.90
20035;DHT22;10178;48.034;9.800;2023-07-16T02:54:20;22.70;99.90
20035;DHT22;10178;48.034;9.800;2023-07-16T02:56:47;22.80;99.90
20035;DHT22;10178;48.034;9.800;2023-07-16T02:59:12;22.60;99.90
20035;DHT22;10178;48.034;9.800;2023-07-16T03:01:38;22.50;99.90
20035;DHT22;10178;48.034;9.800;2023-07-16T03:04:03;22.80;99.90
20035;DHT22;10178;48.034;9.800;2023-07-16T03:06:29;23.50;99.90
20035;DHT22;10178;48.034;9.800;2023-07-16T03:08:55;23.70;99.90
20035;DHT22;10178;48.034;9.800;2023-07-16T03:11:20;23.90;99.90
20035;DHT22;10178;48.034;9.800;2023-07-16T03:13:46;24.10;99.90
20035;DHT22;10178;48.034;9.800;2023-07-16T03:16:12;23.80;99.90
20035;DHT22;10178;48.034;9.800;2023-07-16T03:18:37;23.80;99.90
20035;DHT22;10178;48.034;9.800;2023-07-16T03:21:03;24.10;99.90
20035;DHT22;10178;48.034;9.800;2023-07-16T03:23:29;24.50;99.90
20035;DHT22;10178;48.034;9.800;2023-07-16T03:25:54;24.20;99.90
20035;DHT22;10178;48.034;9.800;2023-07-16T03:28:20;24.30;99.90
20035;DHT22;10178;48.034;9.800;2023-07-16T03:30:50;23.30;99.90
20035;DHT22;10178;48.034;9.800;2023-07-16T03:33:16;22.00;99.90
20035;DHT22;10178;48.034;9.800;2023-07-16T03:35:43;22.40;99.90
20035;DHT22;10178;48.034;9.800;2023-07-16T03:38:10;21.20;99.90
20035;DHT22;10178;48.034;9.800;2023-07-16T03:40:36;20.60;99.90
20035;DHT22;10178;48.034;9.800;2023-07-16T03:43:01;20.10;99.90
20035;DHT22;10178;48.034;9.800;2023-07-16T03:45:27;20.20;99.90
20035;DHT22;10178;48.034;9.800;2023-07-16T03:47:53;19.80;99.90
20035;DHT22;10178;48.034;9.800;2023-07-16T03:50:18;20.00;99.90
20035;DHT22;10178;48.034;9.800;2023-07-16T03:52:44;20.50;99.90
20035;DHT22;10178;48.034;9.800;2023-07-16T03:55:10;20.50;99.90
20035;DHT22;10178;48.034;9.800;2023-07-16T03:57:36;20.40;99.90
20035;DHT22;10178;48.034;9.800;2023-07-16T04:00:03;21.40;99.90
20035;DHT22;10178;48.034;9.800;2023-07-16T04:02:31;21.00;99.90
20035;DHT22;10178;48.034;9.800;2023-07-16T04:04:57;21.30;99.90
20035;DHT22;10178;48.034;9.800;2023-07-16T04:07:22;21.20;99.90
20035;DHT22;10178;48.034;9.800;2023-07-16T04:09:49;21.90;99.90
20035;DHT22;10178;48.034;9.800;2023-07-16T04:12:14;22.20;99.90
20035;DHT22;10178;48.034;9.800;2023-07-16T04:14:40;22.60;99.90
20035;DHT22;10178;48.034;9.800;2023-07-16T04:17:05;22.10;99.90
20035;DHT22;10178;48.034;9.800;2023-07-16T04:19:31;22.10;99.90
20035;DHT22;10178;48.034;9.800;2023-07-16T04:21:57;22.20;99.90
20035;DHT22;10178;48.034;9.800;2023-07-16T04:24:22;22.20;99.90
20035;DHT22;10178;48.034;9.800;2023-07-16T04:26:49;22.50;99.90
20035;DHT22;10178;48.034;9.800;2023-07-16T04:29:14;22.20;99.90
20035;DHT22;10178;48.034;9.800;2023-07-16T04:31:41;22.50;99.90
20035;DHT22;10178;48.034;9.800;2023-07-16T04:34:06;22.30;99.90
20035;DHT22;10178;48.034;9.800;2023-07-16T04:36:32;21.50;99.90
20035;DHT22;10178;48.034;9.800;2023-07-16T04:38:57;20.40;99.90
20035;DHT22;10178;48.034;9.800;2023-07-16T04:41:23;20.50;99.90
20035;DHT22;10178;48.034;9.800;2023-07-16T04:43:49;21.30;99.90
20035;DHT22;10178;48.034;9.800;2023-07-16T04:46:14;21.40;99.90
20035;DHT22;10178;48.034;9.800;2023-07-16T04:48:41;20.60;99.90
20035;DHT22;10178;48.034;9.800;2023-07-16T04:51:07;20.50;99.90
20035;DHT22;10178;48.034;9.800;2023-07-16T04:53:33;20.20;99.90
20035;DHT22;10178;48.034;9.800;2023-07-16T04:55:58;21.10;99.90
20035;DHT22;10178;48.034;9.800;2023-07-16T04:58:24;21.80;99.90
20035;DHT22;10178;48.034;9.800;2023-07-16T05:00:49;22.50;99.90
20035;DHT22;10178;48.034;9.800;2023-07-16T05:03:15;22.80;99.90
20035;DHT22;10178;48.034;9.800;2023-07-16T05:05:41;22.00;99.90
20035;DHT22;10178;48.034;9.800;2023-07-16T05:08:06;21.40;99.90
20035;DHT22;10178;48.034;9.800;2023-07-16T05:10:33;20.50;99.90
20035;DHT22;10178;48.034;9.800;2023-07-16T05:12:58;20.40;99.90
20035;DHT22;10178;48.034;9.800;2023-07-16T05:15:24;20.00;99.90
20035;DHT22;10178;48.034;9.800;2023-07-16T05:17:50;19.80;99.90
20035;DHT22;10178;48.034;9.800;2023-07-16T05:20:16;18.80;99.90
20035;DHT22;10178;48.034;9.800;2023-07-16T05:22:41;18.40;99.90
20035;DHT22;10178;48.034;9.800;2023-07-16T05:25:07;18.20;99.90
20035;DHT22;10178;48.034;9.800;2023-07-16T05:27:33;17.70;99.90
20035;DHT22;10178;48.034;9.800;2023-07-16T05:29:58;17.70;99.90
20035;DHT22;10178;48.034;9.800;2023-07-16T05:32:24;17.90;99.90
20035;DHT22;10178;48.034;9.800;2023-07-16T05:34:50;18.40;99.90
20035;DHT22;10178;48.034;9.800;2023-07-16T05:37:15;19.40;99.90
20035;DHT22;10178;48.034;9.800;2023-07-16T05:39:41;20.20;99.90
20035;DHT22;10178;48.034;9.800;2023-07-16T05:42:06;20.80;99.90
20035;DHT22;10178;48.034;9.800;2023-07-16T05:44:33;21.30;99.90
20035;DHT22;10178;48.034;9.800;2023-07-16T05:46:58;21.20;99.90
20035;DHT22;10178;48.034;9.800;2023-07-16T05:49:25;21.10;99.90
20035;DHT22;10178;48.034;9.800;2023-07-16T05:51:52;21.50;99.90
20035;DHT22;10178;48.034;9.800;2023-07-16T05:54:17;20.90;99.90
20035;DHT22;10178;48.034;9.800;2023-07-16T05:56:43;21.00;99.90
20035;DHT22;10178;48.034;9.800;2023-07-16T05:59:09;20.90;99.90
20035;DHT22;10178;48.034;9.800;2023-07-16T06:01:35;21.10;99.90
20035;DHT22;10178;48.034;9.800;2023-07-16T06:04:00;21.20;99.90
20035;DHT22;10178;48.034;9.800;2023-07-16T06:06:28;21.70;99.90
20035;DHT22;10178;48.034;9.800;2023-07-16T06:08:53;21.40;99.90
20035;DHT22;10178;48.034;9.800;2023-07-16T06:11:19;21.10;99.90
20035;DHT22;10178;48.034;9.800;2023-07-16T06:13:45;20.80;99.90
20035;DHT22;10178;48.034;9.800;2023-07-16T06:16:11;19.70;99.90
20035;DHT22;10178;48.034;9.800;2023-07-16T06:18:37;19.20;99.90
20035;DHT22;10178;48.034;9.800;2023-07-16T06:21:02;19.30;99.90
20035;DHT22;10178;48.034;9.800;2023-07-16T06:23:28;19.40;99.90
20035;DHT22;10178;48.034;9.800;2023-07-16T06:25:54;20.10;99.90
20035;DHT22;10178;48.034;9.800;2023-07-16T06:28:20;19.90;99.90
20035;DHT22;10178;48.034;9.800;2023-07-16T06:30:46;20.10;99.90
20035;DHT22;10178;48.034;9.800;2023-07-16T06:33:12;19.40;99.90
20035;DHT22;10178;48.034;9.800;2023-07-16T06:35:37;19.50;99.90
20035;DHT22;10178;48.034;9.800;2023-07-16T06:38:03;19.30;99.90
20035;DHT22;10178;48.034;9.800;2023-07-16T06:40:29;19.70;99.90
20035;DHT22;10178;48.034;9.800;2023-07-16T06:42:56;19.80;99.90
20035;DHT22;10178;48.034;9.800;2023-07-16T06:45:22;20.00;99.90
20035;DHT22;10178;48.034;9.800;2023-07-16T06:47:48;19.90;99.90
20035;DHT22;10178;48.034;9.800;2023-07-16T06:50:14;20.40;99.90
20035;DHT22;10178;48.034;9.800;2023-07-16T06:52:39;21.00;99.90
20035;DHT22;10178;48.034;9.800;2023-07-16T06:55:05;21.70;99.90
20035;DHT22;10178;48.034;9.800;2023-07-16T06:57:31;22.20;99.90
20035;DHT22;10178;48.034;9.800;2023-07-16T06:59:57;22.40;99.90
20035;DHT22;10178;48.034;9.800;2023-07-16T07:02:22;22.70;99.90
20035;DHT22;10178;48.034;9.800;2023-07-16T07:04:48;23.10;99.90
20035;DHT22;10178;48.034;9.800;2023-07-16T07:07:13;23.30;99.90
20035;DHT22;10178;48.034;9.800;2023-07-16T07:09:39;22.50;99.90
20035;DHT22;10178;48.034;9.800;2023-07-16T07:12:05;22.00;99.90
20035;DHT22;10178;48.034;9.800;2023-07-16T07:14:33;21.30;99.90
20035;DHT22;10178;48.034;9.800;2023-07-16T07:16:58;21.70;99.90
20035;DHT22;10178;48.034;9.800;2023-07-16T07:19:24;22.10;99.90
20035;DHT22;10178;48.034;9.800;2023-07-16T07:21:49;22.20;99.90
20035;DHT22;10178;48.034;9.800;2023-07-16T07:24:15;22.60;99.90
20035;DHT22;10178;48.034;9.800;2023-07-16T07:26:40;23.10;99.90
20035;DHT22;10178;48.034;9.800;2023-07-16T07:29:06;23.50;99.90
20035;DHT22;10178;48.034;9.800;2023-07-16T07:31:32;23.70;99.90
20035;DHT22;10178;48.034;9.800;2023-07-16T07:33:57;23.80;99.90
20035;DHT22;10178;48.034;9.800;2023-07-16T07:36:24;23.00;99.90
20035;DHT22;10178;48.034;9.800;2023-07-16T07:38:49;23.30;99.90
20035;DHT22;10178;48.034;9.800;2023-07-16T07:41:15;23.80;99.90
20035;DHT22;10178;48.034;9.800;2023-07-16T07:43:40;23.90;99.90
20035;DHT22;10178;48.034;9.800;2023-07-16T07:46:06;24.00;99.90
20035;DHT22;10178;48.034;9.800;2023-07-16T07:48:32;23.70;99.90
20035;DHT22;10178;48.034;9.800;2023-07-16T07:50:57;23.10;99.90
20035;DHT22;10178;48.034;9.800;2023-07-16T07:53:23;22.20;99.90
20035;DHT22;10178;48.034;9.800;2023-07-16T07:55:49;22.30;99.90
20035;DHT22;10178;48.034;9.800;2023-07-16T07:58:14;22.20;99.90
20035;DHT22;10178;48.034;9.800;2023-07-16T08:00:40;22.90;99.90
20035;DHT22;10178;48.034;9.800;2023-07-16T08:03:06;23.40;99.90
20035;DHT22;10178;48.034;9.800;2023-07-16T08:05:31;23.90;99.90
20035;DHT22;10178;48.034;9.800;2023-07-16T08:07:58;24.20;99.90
20035;DHT22;10178;48.034;9.800;2023-07-16T08:10:24;24.20;99.90
20035;DHT22;10178;48.034;9.800;2023-07-16T08:12:50;23.40;99.90
20035;DHT22;10178;48.034;9.800;2023-07-16T08:15:15;23.90;99.90
20035;DHT22;10178;48.034;9.800;2023-07-16T08:17:42;24.30;99.90
20035;DHT22;10178;48.034;9.800;2023-07-16T08:20:08;24.40;99.90
20035;DHT22;10178;48.034;9.800;2023-07-16T08:22:34;24.20;99.90
20035;DHT22;10178;48.034;9.800;2023-07-16T08:25:00;24.30;99.90
20035;DHT22;10178;48.034;9.800;2023-07-16T08:27:25;24.60;99.90
20035;DHT22;10178;48.034;9.800;2023-07-16T08:29:51;24.90;99.90
20035;DHT22;10178;48.034;9.800;2023-07-16T08:32:16;25.00;99.90
20035;DHT22;10178;48.034;9.800;2023-07-16T08:34:42;24.90;99.90
20035;DHT22;10178;48.034;9.800;2023-07-16T08:37:08;24.90;99.90
20035;DHT22;10178;48.034;9.800;2023-07-16T08:39:33;24.90;99.90
20035;DHT22;10178;48.034;9.800;2023-07-16T08:41:59;24.90;99.90
20035;DHT22;10178;48.034;9.800;2023-07-16T08:44:25;24.90;99.90
20035;DHT22;10178;48.034;9.800;2023-07-16T08:46:52;24.80;99.90
20035;DHT22;10178;48.034;9.800;2023-07-16T08:49:18;24.80;99.90
20035;DHT22;10178;48.034;9.800;2023-07-16T08:51:46;24.90;99.90
20035;DHT22;10178;48.034;9.800;2023-07-16T08:54:12;25.00;99.90
20035;DHT22;10178;48.034;9.800;2023-07-16T08:56:42;25.10;99.90
20035;DHT22;10178;48.034;9.800;2023-07-16T08:59:08;25.00;99.90
20035;DHT22;10178;48.034;9.800;2023-07-16T09:01:34;24.90;99.90
20035;DHT22;10178;48.034;9.800;2023-07-16T09:04:00;24.90;99.90
20035;DHT22;10178;48.034;9.800;2023-07-16T09:06:25;25.20;99.90
20035;DHT22;10178;48.034;9.800;2023-07-16T09:08:52;25.20;99.90
20035;DHT22;10178;48.034;9.800;2023-07-16T09:11:17;25.20;99.90
20035;DHT22;10178;48.034;9.800;2023-07-16T09:13:46;25.10;99.90
20035;DHT22;10178;48.034;9.800;2023-07-16T09:16:12;24.90;99.90
20035;DHT22;10178;48.034;9.800;2023-07-16T09:18:40;24.80;99.90
20035;DHT22;10178;48.034;9.800;2023-07-16T09:21:05;24.70;99.90
20035;DHT22;10178;48.034;9.800;2023-07-16T09:23:32;24.70;99.90
20035;DHT22;10178;48.034;9.800;2023-07-16T09:25:58;24.90;99.90
20035;DHT22;10178;48.034;9.800;2023-07-16T09:28:24;25.00;99.90
20035;DHT22;10178;48.034;9.800;2023-07-16T09:30:50;25.10;99.90
20035;DHT22;10178;48.034;9.800;2023-07-16T09:33:18;24.70;99.90
20035;DHT22;10178;48.034;9.800;2023-07-16T09:35:49;23.50;99.90
20035;DHT22;10178;48.034;9.800;2023-07-16T09:38:15;23.70;99.90
20035;DHT22;10178;48.034;9.800;2023-07-16T09:40:41;24.20;99.90
20035;DHT22;10178;48.034;9.800;2023-07-16T09:43:11;24.50;99.90
20035;DHT22;10178;48.034;9.800;2023-07-16T09:45:37;24.90;99.90
20035;DHT22;10178;48.034;9.800;2023-07-16T09:48:04;24.90;99.90
20035;DHT22;10178;48.034;9.800;2023-07-16T09:50:32;25.10;99.90
20035;DHT22;10178;48.034;9.800;2023-07-16T09:52:59;25.20;99.90
20035;DHT22;10178;48.034;9.800;2023-07-16T09:55:25;25.10;99.90
20035;DHT22;10178;48.034;9.800;2023-07-16T09:57:56;25.20;99.90
20035;DHT22;10178;48.034;9.800;2023-07-16T10:00:23;25.20;99.90
20035;DHT22;10178;48.034;9.800;2023-07-16T10:02:51;25.20;99.90
20035;DHT22;10178;48.034;9.800;2023-07-16T10:05:25;25.30;99.90
20035;DHT22;10178;48.034;9.800;2023-07-16T10:07:53;25.20;99.90
20035;DHT22;10178;48.034;9.800;2023-07-16T10:10:19;25.10;99.90
20035;DHT22;10178;48.034;9.800;2023-07-16T10:13:14;25.20;99.90
20035;DHT22;10178;48.034;9.800;2023-07-16T10:15:51;25.20;99.90
20035;DHT22;10178;48.034;9.800;2023-07-16T10:18:28;25.20;99.90
20035;DHT22;10178;48.034;9.800;2023-07-16T10:21:04;25.20;99.90
20035;DHT22;10178;48.034;9.800;2023-07-16T10:23:43;25.30;99.90
20035;DHT22;10178;48.034;9.800;2023-07-16T10:26:14;25.30;99.90
20035;DHT22;10178;48.034;9.800;2023-07-16T10:28:40;25.40;99.90
20035;DHT22;10178;48.034;9.800;2023-07-16T10:31:06;25.50;99.90
20035;DHT22;10178;48.034;9.800;2023-07-16T10:33:42;25.40;99.90
20035;DHT22;10178;48.034;9.800;2023-07-16T10:36:07;25.50;99.90
20035;DHT22;10178;48.034;9.800;2023-07-16T10:38:41;25.40;99.90
20035;DHT22;10178;48.034;9.800;2023-07-16T10:41:09;25.20;99.90
20035;DHT22;10178;48.034;9.800;2023-07-16T10:43:35;25.30;99.90
20035;DHT22;10178;48.034;9.800;2023-07-16T10:46:02;25.30;99.90
20035;DHT22;10178;48.034;9.800;2023-07-16T10:48:28;25.50;99.90
20035;DHT22;10178;48.034;9.800;2023-07-16T10:50:54;25.50;99.90
20035;DHT22;10178;48.034;9.800;2023-07-16T10:53:20;25.50;99.90
20035;DHT22;10178;48.034;9.800;2023-07-16T10:55:45;25.00;99.90
20035;DHT22;10178;48.034;9.800;2023-07-16T10:58:11;25.20;99.90
20035;DHT22;10178;48.034;9.800;2023-07-16T11:00:38;25.20;99.90
20035;DHT22;10178;48.034;9.800;2023-07-16T11:03:04;24.80;99.90
20035;DHT22;10178;48.034;9.800;2023-07-16T11:05:30;24.90;99.90
20035;DHT22;10178;48.034;9.800;2023-07-16T11:07:55;24.90;99.90
20035;DHT22;10178;48.034;9.800;2023-07-16T11:10:23;24.90;99.90
20035;DHT22;10178;48.034;9.800;2023-07-16T11:12:52;24.90;99.90
20035;DHT22;10178;48.034;9.800;2023-07-16T11:15:18;24.90;99.90
20035;DHT22;10178;48.034;9.800;2023-07-16T11:17:48;25.00;99.90
20035;DHT22;10178;48.034;9.800;2023-07-16T11:20:15;25.10;99.90
20035;DHT22;10178;48.034;9.800;2023-07-16T11:22:41;25.20;99.90
20035;DHT22;10178;48.034;9.800;2023-07-16T11:25:13;25.30;99.90
20035;DHT22;10178;48.034;9.800;2023-07-16T11:27:41;25.50;99.90
20035;DHT22;10178;48.034;9.800;2023-07-16T11:30:07;25.50;99.90
20035;DHT22;10178;48.034;9.800;2023-07-16T11:32:35;25.60;99.90
20035;DHT22;10178;48.034;9.800;2023-07-16T11:35:03;25.60;99.90
20035;DHT22;10178;48.034;9.800;2023-07-16T11:37:30;25.70;99.90
20035;DHT22;10178;48.034;9.800;2023-07-16T11:39:57;25.70;99.90
20035;DHT22;10178;48.034;9.800;2023-07-16T11:42:28;25.70;99.90
20035;DHT22;10178;48.034;9.800;2023-07-16T11:44:53;25.70;99.90
20035;DHT22;10178;48.034;9.800;2023-07-16T11:47:20;25.80;99.90
20035;DHT22;10178;48.034;9.800;2023-07-16T11:49:45;25.80;99.90
20035;DHT22;10178;48.034;9.800;2023-07-16T11:52:11;25.60;99.90
20035;DHT22;10178;48.034;9.800;2023-07-16T11:54:37;25.50;99.90
20035;DHT22;10178;48.034;9.800;2023-07-16T11:57:03;25.70;99.90
20035;DHT22;10178;48.034;9.800;2023-07-16T11:59:29;25.80;99.90
20035;DHT22;10178;48.034;9.800;2023-07-16T12:01:54;25.70;99.90
20035;DHT22;10178;48.034;9.800;2023-07-16T12:04:20;25.70;99.90
20035;DHT22;10178;48.034;9.800;2023-07-16T12:06:46;25.70;99.90
20035;DHT22;10178;48.034;9.800;2023-07-16T12:09:11;25.60;99.90
20035;DHT22;10178;48.034;9.800;2023-07-16T12:11:38;25.60;99.90
20035;DHT22;10178;48.034;9.800;2023-07-16T12:14:07;25.60;99.90
20035;DHT22;10178;48.034;9.800;2023-07-16T12:16:32;25.60;99.90
20035;DHT22;10178;48.034;9.800;2023-07-16T12:18:58;25.60;99.90
20035;DHT22;10178;48.034;9.800;2023-07-16T12:21:24;25.60;99.90
20035;DHT22;10178;48.034;9.800;2023-07-16T12:23:49;25.60;99.90
20035;DHT22;10178;48.034;9.800;2023-07-16T12:26:15;25.70;99.90
20035;DHT22;10178;48.034;9.800;2023-07-16T12:28:41;25.60;99.90
20035;DHT22;10178;48.034;9.800;2023-07-16T12:31:06;25.60;99.90
20035;DHT22;10178;48.034;9.800;2023-07-16T12:33:32;25.60;99.90
20035;DHT22;10178;48.034;9.800;2023-07-16T12:35:58;25.60;99.90
20035;DHT22;10178;48.034;9.800;2023-07-16T12:38:23;25.50;99.90
20035;DHT22;10178;48.034;9.800;2023-07-16T12:40:49;25.50;99.90
20035;DHT22;10178;48.034;9.800;2023-07-16T12:43:15;25.50;99.90
20035;DHT22;10178;48.034;9.800;2023-07-16T12:45:40;25.60;99.90
20035;DHT22;10178;48.034;9.800;2023-07-16T12:48:06;25.60;99.90
20035;DHT22;10178;48.034;9.800;2023-07-16T12:50:31;25.70;99.90
20035;DHT22;10178;48.034;9.800;2023-07-16T12:52:57;25.70;99.90
20035;DHT22;10178;48.034;9.800;2023-07-16T12:55:23;25.70;99.90
20035;DHT22;10178;48.034;9.800;2023-07-16T12:57:49;25.70;99.90
20035;DHT22;10178;48.034;9.800;2023-07-16T13:00:15;25.60;99.90
20035;DHT22;10178;48.034;9.800;2023-07-16T13:02:40;25.50;99.90
20035;DHT22;10178;48.034;9.800;2023-07-16T13:05:06;25.50;99.90
20035;DHT22;10178;48.034;9.800;2023-07-16T13:07:32;25.50;99.90
20035;DHT22;10178;48.034;9.800;2023-07-16T13:09:58;25.50;99.90
20035;DHT22;10178;48.034;9.800;2023-07-16T13:12:24;25.50;99.90
20035;DHT22;10178;48.034;9.800;2023-07-16T13:14:50;25.50;99.90
20035;DHT22;10178;48.034;9.800;2023-07-16T13:17:16;25.50;99.90
20035;DHT22;10178;48.034;9.800;2023-07-16T13:19:43;25.60;99.90
20035;DHT22;10178;48.034;9.800;2023-07-16T13:22:08;25.60;99.90
20035;DHT22;10178;48.034;9.800;2023-07-16T13:24:34;25.50;99.90
20035;DHT22;10178;48.034;9.800;2023-07-16T13:26:59;25.50;99.90
20035;DHT22;10178;48.034;9.800;2023-07-16T13:29:25;25.50;99.90
20035;DHT22;10178;48.034;9.800;2023-07-16T13:31:50;25.50;99.90
20035;DHT22;10178;48.034;9.800;2023-07-16T13:34:16;25.50;99.90
20035;DHT22;10178;48.034;9.800;2023-07-16T13:36:42;25.50;99.90
20035;DHT22;10178;48.034;9.800;2023-07-16T13:39:07;25.50;99.90
20035;DHT22;10178;48.034;9.800;2023-07-16T13:41:33;25.60;99.90
20035;DHT22;10178;48.034;9.800;2023-07-16T13:43:59;25.60;99.90
20035;DHT22;10178;48.034;9.800;2023-07-16T13:46:24;25.60;99.90
20035;DHT22;10178;48.034;9.800;2023-07-16T13:48:50;25.60;99.90
20035;DHT22;10178;48.034;9.800;2023-07-16T13:51:15;25.70;99.90
20035;DHT22;10178;48.034;9.800;2023-07-16T13:53:41;25.80;99.90
20035;DHT22;10178;48.034;9.800;2023-07-16T13:56:07;25.80;99.90
20035;DHT22;10178;48.034;9.800;2023-07-16T13:58:33;25.80;99.90
20035;DHT22;10178;48.034;9.800;2023-07-16T14:00:59;25.80;99.90
20035;DHT22;10178;48.034;9.800;2023-07-16T14:03:25;25.80;99.90
20035;DHT22;10178;48.034;9.800;2023-07-16T14:05:51;25.80;99.90
20035;DHT22;10178;48.034;9.800;2023-07-16T14:08:17;25.90;99.90
20035;DHT22;10178;48.034;9.800;2023-07-16T14:10:42;25.90;99.90
20035;DHT22;10178;48.034;9.800;2023-07-16T14:13:08;25.90;99.90
20035;DHT22;10178;48.034;9.800;2023-07-16T14:15:33;26.00;99.90
20035;DHT22;10178;48.034;9.800;2023-07-16T14:17:59;26.00;99.90
20035;DHT22;10178;48.034;9.800;2023-07-16T14:20:24;26.00;99.90
20035;DHT22;10178;48.034;9.800;2023-07-16T14:22:50;26.00;99.90
20035;DHT22;10178;48.034;9.800;2023-07-16T14:25:16;26.10;99.90
20035;DHT22;10178;48.034;9.800;2023-07-16T14:27:41;26.10;99.90
20035;DHT22;10178;48.034;9.800;2023-07-16T14:30:07;26.10;99.90
20035;DHT22;10178;48.034;9.800;2023-07-16T14:32:34;26.00;99.90
20035;DHT22;10178;48.034;9.800;2023-07-16T14:35:00;26.10;99.90
20035;DHT22;10178;48.034;9.800;2023-07-16T14:37:26;26.10;99.90
20035;DHT22;10178;48.034;9.800;2023-07-16T14:39:51;25.80;99.90
20035;DHT22;10178;48.034;9.800;2023-07-16T14:42:17;25.50;99.90
20035;DHT22;10178;48.034;9.800;2023-07-16T14:44:43;25.70;99.90
20035;DHT22;10178;48.034;9.800;2023-07-16T14:47:08;25.90;99.90
20035;DHT22;10178;48.034;9.800;2023-07-16T14:49:35;26.00;99.90
20035;DHT22;10178;48.034;9.800;2023-07-16T14:52:00;25.40;99.90
20035;DHT22;10178;48.034;9.800;2023-07-16T14:54:26;25.50;99.90
20035;DHT22;10178;48.034;9.800;2023-07-16T14:56:51;25.80;99.90
20035;DHT22;10178;48.034;9.800;2023-07-16T14:59:17;26.00;99.90
20035;DHT22;10178;48.034;9.800;2023-07-16T15:01:43;26.10;99.90
20035;DHT22;10178;48.034;9.800;2023-07-16T15:04:08;26.20;99.90
20035;DHT22;10178;48.034;9.800;2023-07-16T15:06:35;25.30;99.90
20035;DHT22;10178;48.034;9.800;2023-07-16T15:09:01;24.80;99.90
20035;DHT22;10178;48.034;9.800;2023-07-16T15:11:26;24.70;99.90
20035;DHT22;10178;48.034;9.800;2023-07-16T15:13:52;24.90;99.90
20035;DHT22;10178;48.034;9.800;2023-07-16T15:16:17;25.30;99.90
20035;DHT22;10178;48.034;9.800;2023-07-16T15:18:43;25.70;99.90
20035;DHT22;10178;48.034;9.800;2023-07-16T15:21:10;26.00;99.90
20035;DHT22;10178;48.034;9.800;2023-07-16T15:23:36;26.20;99.90
20035;DHT22;10178;48.034;9.800;2023-07-16T15:26:04;26.40;99.90
20035;DHT22;10178;48.034;9.800;2023-07-16T15:28:32;26.30;99.90
20035;DHT22;10178;48.034;9.800;2023-07-16T15:31:00;26.30;99.90
20035;DHT22;10178;48.034;9.800;2023-07-16T15:33:26;26.20;99.90